createdAt,value
2017-08-14T00:01:14.709Z,99.99
2017-08-14T00:03:39.817Z,99.99
2017-08-14T00:06:03.988Z,99.99
2017-08-14T00:08:30.134Z,99.99
2017-08-14T00:10:45.786Z,99.99
2017-08-14T00:13:10.918Z,99.99
2017-08-14T00:15:35.002Z,99.99
2017-08-14T00:18:00.085Z,99.99
2017-08-14T00:20:26.202Z,99.99
2017-08-14T00:22:50.293Z,99.99
2017-08-14T00:25:23.301Z,99.99
2017-08-14T00:27:47.352Z,99.99
2017-08-14T00:30:11.331Z,99.99
2017-08-14T00:32:36.564Z,99.99
2017-08-14T00:35:01.660Z,99.99
2017-08-14T00:37:27.812Z,99.99
2017-08-14T00:39:51.978Z,99.99
2017-08-14T00:42:16.047Z,99.99
2017-08-14T00:44:40.076Z,99.99
2017-08-14T00:47:05.133Z,99.99
2017-08-14T00:49:29.221Z,99.99
2017-08-14T00:51:54.330Z,99.99
2017-08-14T00:54:25.290Z,99.99
2017-08-14T00:56:27.223Z,99.99
2017-08-14T00:58:51.226Z,99.99
2017-08-14T01:01:13.683Z,99.99
2017-08-14T01:03:29.153Z,99.99
2017-08-14T01:05:31.023Z,99.99
2017-08-14T01:07:54.097Z,99.99
2017-08-14T01:10:18.052Z,99.99
2017-08-14T01:12:42.032Z,99.99
2017-08-14T01:15:12.983Z,99.99
2017-08-14T01:17:23.367Z,99.99
2017-08-14T01:19:47.381Z,99.99
2017-08-14T01:22:11.408Z,99.99
2017-08-14T01:24:37.407Z,99.99
2017-08-14T01:27:01.486Z,99.99
2017-08-14T01:29:25.462Z,99.99
2017-08-14T01:31:56.299Z,99.99
2017-08-14T01:34:20.233Z,99.99
2017-08-14T01:36:44.173Z,99.99
2017-08-14T01:39:08.259Z,99.99
2017-08-14T01:41:33.352Z,99.99
2017-08-14T01:43:57.441Z,99.99
2017-08-14T01:46:23.456Z,99.99
2017-08-14T01:48:33.361Z,99.99
2017-08-14T01:50:50.020Z,99.99
2017-08-14T01:53:14.095Z,99.99
2017-08-14T01:55:38.202Z,99.99
2017-08-14T01:58:04.217Z,99.99
2017-08-14T02:00:34.742Z,99.99
2017-08-14T02:02:58.685Z,99.99
2017-08-14T02:05:24.644Z,99.99
2017-08-14T02:07:48.540Z,99.99
2017-08-14T02:10:12.516Z,99.99
2017-08-14T02:12:37.402Z,99.99
2017-08-14T02:15:01.390Z,99.99
2017-08-14T02:17:33.257Z,99.99
2017-08-14T02:19:57.203Z,99.99
2017-08-14T02:22:21.164Z,99.99
2017-08-14T02:24:45.102Z,99.99
2017-08-14T02:27:09.083Z,99.99
2017-08-14T02:29:32.998Z,99.99
2017-08-14T02:31:56.914Z,99.99
2017-08-14T02:34:21.934Z,99.99
2017-08-14T02:36:52.767Z,99.99
2017-08-14T02:39:16.778Z,99.99
2017-08-14T02:41:40.690Z,99.99
2017-08-14T02:44:04.610Z,99.99
2017-08-14T02:46:28.566Z,99.99
2017-08-14T02:48:52.488Z,99.99
2017-08-14T02:51:16.526Z,99.99
2017-08-14T02:53:40.496Z,99.99
2017-08-14T02:55:56.025Z,99.99
2017-08-14T02:58:19.949Z,99.99
2017-08-14T03:00:43.947Z,99.99
2017-08-14T03:03:07.916Z,99.99
2017-08-14T03:05:38.781Z,99.99
2017-08-14T03:08:02.741Z,99.99
2017-08-14T03:10:26.683Z,99.99
2017-08-14T03:12:50.634Z,99.99
2017-08-14T03:15:15.723Z,99.99
2017-08-14T03:17:39.749Z,99.99
2017-08-14T03:20:03.781Z,99.99
2017-08-14T03:22:27.794Z,99.99
2017-08-14T03:24:58.803Z,99.99
2017-08-14T03:27:22.769Z,99.99
2017-08-14T03:29:46.716Z,99.99
2017-08-14T03:32:10.641Z,99.99
2017-08-14T03:34:34.604Z,99.99
2017-08-14T03:36:44.492Z,99.99
2017-08-14T03:39:08.463Z,99.99
2017-08-14T03:41:32.544Z,99.99
2017-08-14T03:43:56.486Z,99.99
2017-08-14T03:46:21.529Z,99.99
2017-08-14T03:48:45.495Z,99.99
2017-08-14T03:51:09.486Z,99.99
2017-08-14T03:53:33.461Z,99.99
2017-08-14T03:55:57.375Z,99.99
2017-08-14T03:58:21.278Z,99.99
2017-08-14T04:00:52.883Z,99.99
2017-08-14T04:03:16.842Z,99.99
2017-08-14T04:05:40.771Z,99.99
2017-08-14T04:08:04.799Z,99.99
2017-08-14T04:12:04.948Z,99.99
2017-08-14T04:16:06.217Z,99.99
2017-08-14T04:18:30.211Z,99.99
2017-08-14T04:21:01.136Z,99.99
2017-08-14T04:23:25.052Z,99.99
2017-08-14T04:25:48.975Z,99.99
2017-08-14T04:28:12.972Z,99.99
2017-08-14T04:30:37.986Z,99.99
2017-08-14T04:32:39.320Z,99.99
2017-08-14T04:35:04.342Z,99.99
2017-08-14T04:37:37.217Z,99.99
2017-08-14T04:39:39.070Z,99.99
2017-08-14T04:41:40.412Z,99.99
2017-08-14T04:43:51.588Z,99.99
2017-08-14T04:46:07.143Z,99.99
2017-08-14T04:48:22.743Z,99.99
2017-08-14T04:50:46.745Z,99.99
2017-08-14T04:52:50.186Z,99.99
2017-08-14T04:55:28.967Z,99.99
2017-08-14T04:57:52.971Z,99.99
2017-08-14T05:00:17.025Z,99.99
2017-08-14T05:02:26.942Z,99.99
2017-08-14T05:04:28.309Z,99.99
2017-08-14T05:07:00.232Z,95.44
2017-08-14T05:09:16.015Z,91.14
2017-08-14T05:11:40.400Z,89.2
2017-08-14T05:14:04.753Z,95.01
2017-08-14T05:16:29.179Z,91.62
2017-08-14T05:18:53.669Z,92.59
2017-08-14T05:21:18.167Z,94.96
2017-08-14T05:23:42.652Z,98.1
2017-08-14T05:26:07.028Z,99.88
2017-08-14T05:28:31.418Z,99.99
2017-08-14T05:30:55.828Z,99.99
2017-08-14T05:33:11.695Z,99.99
2017-08-14T05:35:27.594Z,99.99
2017-08-14T05:37:51.875Z,99.99
2017-08-14T05:40:16.163Z,99.99
2017-08-14T05:42:42.499Z,99.99
2017-08-14T05:45:07.818Z,99.99
2017-08-14T05:49:07.738Z,99.99
2017-08-14T05:51:31.942Z,99.99
2017-08-14T05:55:23.898Z,99.99
2017-08-14T05:57:48.074Z,99.99
2017-08-14T06:00:12.244Z,99.99
2017-08-14T06:02:36.413Z,99.99
2017-08-14T06:05:00.623Z,99.99
2017-08-14T06:07:24.776Z,99.99
2017-08-14T06:09:50.053Z,99.99
2017-08-14T06:12:15.240Z,99.99
2017-08-14T06:14:41.438Z,99.99
2017-08-14T06:17:05.618Z,99.99
2017-08-14T06:19:29.928Z,99.99
2017-08-14T06:21:54.179Z,99.99
2017-08-14T06:24:33.344Z,99.99
2017-08-14T06:26:57.597Z,99.69
2017-08-14T06:29:21.826Z,94.14
2017-08-14T06:31:46.195Z,96.41
2017-08-14T06:34:12.551Z,94.82
2017-08-14T06:36:36.908Z,95.1
2017-08-14T06:40:37.548Z,85.46
2017-08-14T06:43:01.979Z,82.18
2017-08-14T06:45:26.480Z,79.63
2017-08-14T06:47:51.006Z,80.36
2017-08-14T06:50:15.706Z,85.46
2017-08-14T06:52:40.501Z,81.95
2017-08-14T06:54:57.800Z,82.78
2017-08-14T06:57:23.601Z,83.52
2017-08-14T07:01:24.437Z,84.06
2017-08-14T07:03:49.066Z,80.5
2017-08-14T07:06:13.647Z,86.63
2017-08-14T07:08:40.304Z,84.25
2017-08-14T07:11:12.770Z,83.13
2017-08-14T07:13:14.267Z,84.39
2017-08-14T07:15:38.870Z,83.86
2017-08-14T07:18:03.460Z,83.62
2017-08-14T07:20:28.084Z,84.74
2017-08-14T07:22:52.575Z,85.71
2017-08-14T07:25:25.192Z,83.72
2017-08-14T07:27:41.264Z,82.88
2017-08-14T07:30:05.864Z,80.69
2017-08-14T07:32:30.402Z,76.15
2017-08-14T07:34:55.161Z,73.21
2017-08-14T07:38:56.545Z,72.43
2017-08-14T07:41:21.368Z,72.92
2017-08-14T07:43:46.213Z,74.05
2017-08-14T07:46:11.037Z,72.43
2017-08-14T07:48:43.899Z,70.95
2017-08-14T07:51:00.395Z,71.59
2017-08-14T07:53:25.071Z,70.72
2017-08-14T07:55:49.934Z,68.68
2017-08-14T07:58:06.334Z,66.05
2017-08-14T08:00:38.969Z,64.68
2017-08-14T08:03:03.891Z,62.1
2017-08-14T08:05:28.845Z,61.94
2017-08-14T08:07:45.360Z,57.08
2017-08-14T08:10:01.961Z,50.42
2017-08-14T08:12:27.187Z,50.85
2017-08-14T08:14:52.460Z,51.72
2017-08-14T08:17:17.901Z,48.71
2017-08-14T08:19:43.640Z,44.56
2017-08-14T08:22:09.361Z,42.7
2017-08-14T08:24:34.990Z,43.25
2017-08-14T08:27:00.698Z,48.67
2017-08-14T08:29:26.404Z,45.46
2017-08-14T08:31:52.252Z,40.82
2017-08-14T08:34:17.920Z,40.26
2017-08-14T08:36:43.621Z,39.25
2017-08-14T08:39:10.401Z,37.81
2017-08-14T08:41:13.499Z,40.25
2017-08-14T08:43:39.475Z,42.38
2017-08-14T08:46:05.166Z,46.67
2017-08-14T08:48:31.006Z,41.63
2017-08-14T08:50:56.670Z,38.94
2017-08-14T08:53:22.388Z,42.29
2017-08-14T08:55:50.195Z,41.71
2017-08-14T08:58:16.037Z,41.79
2017-08-14T09:00:41.700Z,42.91
2017-08-14T09:03:07.380Z,42.21
2017-08-14T09:05:33.128Z,42.01
2017-08-14T09:07:58.809Z,42.96
2017-08-14T09:10:24.549Z,42.42
2017-08-14T09:12:50.283Z,44.13
2017-08-14T09:15:15.975Z,41.47
2017-08-14T09:17:41.670Z,46.01
2017-08-14T09:20:07.224Z,42.4
2017-08-14T09:22:34.012Z,45.35
2017-08-14T09:24:59.546Z,48.3
2017-08-14T09:27:25.166Z,48.21
2017-08-14T09:29:50.785Z,47.07
2017-08-14T09:32:16.236Z,47.09
2017-08-14T09:34:41.752Z,51.98
2017-08-14T09:37:08.336Z,49.8
2017-08-14T09:39:33.744Z,49.55
2017-08-14T09:41:59.137Z,48.15
2017-08-14T09:44:24.679Z,48.82
2017-08-14T09:46:50.088Z,48.35
2017-08-14T09:49:15.523Z,48.91
2017-08-14T09:51:40.972Z,46.45
2017-08-14T09:54:06.614Z,46.75
2017-08-14T09:56:32.230Z,49.73
2017-08-14T09:58:57.717Z,46.57
2017-08-14T10:01:23.298Z,48.49
2017-08-14T10:03:34.034Z,48.84
2017-08-14T10:06:00.359Z,49.23
2017-08-14T10:08:25.702Z,49.31
2017-08-14T10:10:52.733Z,50.27
2017-08-14T10:13:18.117Z,51.32
2017-08-14T10:15:43.982Z,51.29
2017-08-14T10:18:09.467Z,51.22
2017-08-14T10:20:35.050Z,50.83
2017-08-14T10:23:00.438Z,51.32
2017-08-14T10:25:25.934Z,51.59
2017-08-14T10:27:52.406Z,50.63
2017-08-14T10:31:53.726Z,50.76
2017-08-14T10:34:19.193Z,49.33
2017-08-14T10:36:44.726Z,51.76
2017-08-14T10:39:10.191Z,51.66
2017-08-14T10:41:35.677Z,50.27
2017-08-14T10:44:01.050Z,51.66
2017-08-14T10:46:26.444Z,51.72
2017-08-14T10:48:51.821Z,52.25
2017-08-14T10:51:18.235Z,53.59
2017-08-14T10:53:43.619Z,51.89
2017-08-14T10:56:08.938Z,53.01
2017-08-14T10:58:34.305Z,53.28
2017-08-14T11:00:59.618Z,55.06
2017-08-14T11:03:25.017Z,53.4
2017-08-14T11:05:50.348Z,53.13
2017-08-14T11:08:15.726Z,51.88
2017-08-14T11:10:41.215Z,52.86
2017-08-14T11:13:06.567Z,52.96
2017-08-14T11:15:31.688Z,53.98
2017-08-14T11:17:56.908Z,55.03
2017-08-14T11:20:22.019Z,56.25
2017-08-14T11:22:47.189Z,55.3
2017-08-14T11:25:12.289Z,54.64
2017-08-14T11:27:37.409Z,54.25
2017-08-14T11:30:02.624Z,53.42
2017-08-14T11:32:28.867Z,53.42
2017-08-14T11:34:54.070Z,53.78
2017-08-14T11:37:19.155Z,55
2017-08-14T11:41:12.115Z,56.25
2017-08-14T11:43:37.226Z,58.24
2017-08-14T11:46:02.180Z,58.5
2017-08-14T11:48:27.221Z,56.02
2017-08-14T11:50:52.289Z,56.64
2017-08-14T11:53:17.384Z,57.56
2017-08-14T11:55:42.343Z,59.06
2017-08-14T11:58:07.407Z,60.49
2017-08-14T12:00:32.389Z,59.38
2017-08-14T12:02:57.336Z,58.14
2017-08-14T12:05:22.258Z,60.16
2017-08-14T12:07:47.221Z,60.26
2017-08-14T12:10:12.242Z,58.89
2017-08-14T12:12:37.141Z,59.48
2017-08-14T12:15:02.014Z,58.14
2017-08-14T12:17:26.890Z,57.65
2017-08-14T12:19:51.811Z,57.68
2017-08-14T12:22:16.845Z,56.27
2017-08-14T12:24:41.774Z,57.63
2017-08-14T12:27:06.996Z,55.44
2017-08-14T12:29:41.050Z,54.32
2017-08-14T12:32:06.053Z,54.88
2017-08-14T12:34:31.205Z,54.88
2017-08-14T12:36:56.099Z,55.24
2017-08-14T12:39:12.870Z,54.49
2017-08-14T12:41:37.909Z,55.41
2017-08-14T12:44:03.047Z,57.82
2017-08-14T12:46:28.337Z,57.63
2017-08-14T12:48:53.655Z,55.66
2017-08-14T12:51:18.623Z,55.18
2017-08-14T12:53:50.439Z,56.02
2017-08-14T12:59:28.443Z,56.22
2017-08-14T13:01:53.623Z,55.86
2017-08-14T13:04:18.760Z,55.9
2017-08-14T13:06:51.487Z,55.77
2017-08-14T13:09:16.627Z,53.54
2017-08-14T13:11:41.756Z,51.93
2017-08-14T13:14:06.731Z,54.1
2017-08-14T13:16:31.731Z,53.34
2017-08-14T13:20:33.164Z,54.46
2017-08-14T13:24:37.703Z,55.61
2017-08-14T13:27:18.094Z,53.71
2017-08-14T13:29:43.371Z,56.16
2017-08-14T13:32:08.499Z,55.32
2017-08-14T13:34:33.671Z,53.25
2017-08-14T13:36:58.645Z,53.91
2017-08-14T13:39:30.667Z,54.93
2017-08-14T13:41:55.732Z,54.99
2017-08-14T13:44:20.993Z,54.99
2017-08-14T13:46:46.420Z,54.56
2017-08-14T13:49:11.538Z,54.14
2017-08-14T13:51:36.889Z,53.97
2017-08-14T13:54:01.925Z,54.11
2017-08-14T13:56:26.851Z,54.14
2017-08-14T13:58:51.833Z,54.31
2017-08-14T14:01:17.833Z,53.27
2017-08-14T14:03:42.553Z,52.22
2017-08-14T14:06:08.551Z,52.34
2017-08-14T14:08:10.671Z,51.68
2017-08-14T14:10:37.806Z,50.93
2017-08-14T14:13:02.706Z,51.05
2017-08-14T14:15:27.765Z,51.86
2017-08-14T14:17:52.780Z,51.98
2017-08-14T14:20:17.841Z,51.88
2017-08-14T14:22:42.830Z,51.46
2017-08-14T14:25:07.797Z,52.02
2017-08-14T14:27:32.858Z,51.82
2017-08-14T14:29:57.841Z,51.82
2017-08-14T14:32:22.846Z,52.68
2017-08-14T14:34:48.850Z,52.7
2017-08-14T14:37:13.856Z,52.97
2017-08-14T14:39:40.012Z,51.46
2017-08-14T14:42:05.057Z,51
2017-08-14T14:44:29.988Z,52.61
2017-08-14T14:46:54.778Z,53
2017-08-14T14:49:21.721Z,51.86
2017-08-14T14:51:38.230Z,51.59
2017-08-14T14:54:04.253Z,52.12
2017-08-14T14:56:30.313Z,52.22
2017-08-14T14:58:55.212Z,51.76
2017-08-14T15:01:21.310Z,52.61
2017-08-14T15:03:47.051Z,51.66
2017-08-14T15:06:12.032Z,51.63
2017-08-14T15:08:36.918Z,51.53
2017-08-14T15:11:03.980Z,51.27
2017-08-14T15:13:28.966Z,50.49
2017-08-14T15:15:54.063Z,50.29
2017-08-14T15:18:19.007Z,51.07
2017-08-14T15:20:44.096Z,50.68
2017-08-14T15:23:09.000Z,51.63
2017-08-14T15:25:42.011Z,51.29
2017-08-14T15:28:06.949Z,51.63
2017-08-14T15:30:31.872Z,51.66
2017-08-14T15:32:56.935Z,51.78
2017-08-14T15:35:21.832Z,51.59
2017-08-14T15:37:23.960Z,51.88
2017-08-14T15:39:48.958Z,51.59
2017-08-14T15:42:13.911Z,51.56
2017-08-14T15:44:38.916Z,51.66
2017-08-14T15:47:03.888Z,51.82
2017-08-14T15:49:28.790Z,52.22
2017-08-14T15:51:30.924Z,52.22
2017-08-14T15:53:55.839Z,52.61
2017-08-14T15:56:20.698Z,52.78
2017-08-14T15:58:45.885Z,53.73
2017-08-14T16:01:10.587Z,52.87
2017-08-14T16:03:35.459Z,52.78
2017-08-14T16:06:00.255Z,52.78
2017-08-14T16:08:10.534Z,52.29
2017-08-14T16:10:35.419Z,51.7
2017-08-14T16:13:00.268Z,52.56
2017-08-14T16:15:25.169Z,51.53
2017-08-14T16:17:50.038Z,51.8
2017-08-14T16:20:14.855Z,50.65
2017-08-14T16:22:25.535Z,50.1
2017-08-14T16:24:50.512Z,50.59
2017-08-14T16:27:15.391Z,50.1
2017-08-14T16:29:31.810Z,50.16
2017-08-14T16:31:56.757Z,50.78
2017-08-14T16:34:21.664Z,50.07
2017-08-14T16:36:46.530Z,51.14
2017-08-14T16:39:12.424Z,50.75
2017-08-14T16:41:37.436Z,51.73
2017-08-14T16:44:02.430Z,50.95
2017-08-14T16:46:27.302Z,50.98
2017-08-14T16:48:52.350Z,51.07
2017-08-14T16:51:17.268Z,51.27
2017-08-14T16:53:43.284Z,51
2017-08-14T16:56:10.211Z,51.76
2017-08-14T16:58:35.101Z,52.25
2017-08-14T17:01:00.113Z,53.22
2017-08-14T17:03:25.127Z,53.52
2017-08-14T17:05:18.750Z,50.78
2017-08-14T17:07:35.228Z,50.22
2017-08-14T17:10:00.165Z,50.71
2017-08-14T17:12:25.110Z,50.9
2017-08-14T17:14:35.795Z,52.27
2017-08-14T17:17:00.772Z,51.68
2017-08-14T17:19:25.720Z,51.66
2017-08-14T17:21:27.869Z,51.76
2017-08-14T17:23:52.799Z,53.66
2017-08-14T17:26:17.719Z,53.95
2017-08-14T17:28:42.613Z,52.39
2017-08-14T17:30:53.308Z,51.7
2017-08-14T17:33:18.285Z,52.75
2017-08-14T17:35:43.179Z,53.5
2017-08-14T17:38:08.145Z,52.95
2017-08-14T17:40:34.110Z,53.31
2017-08-14T17:42:59.130Z,53.44
2017-08-14T17:45:24.069Z,53.8
2017-08-14T17:47:51.151Z,53.14
2017-08-14T17:50:16.053Z,53.34
2017-08-14T17:52:40.872Z,53.63
2017-08-14T17:55:05.857Z,53.7
2017-08-14T17:57:30.788Z,54.48
2017-08-14T17:59:55.624Z,54.09
2017-08-14T18:02:21.970Z,53.97
2017-08-14T18:04:40.391Z,54.77
2017-08-14T18:07:05.207Z,54.19
2017-08-14T18:09:30.061Z,55.04
2017-08-14T18:11:40.723Z,55.01
2017-08-14T18:14:05.560Z,55.01
2017-08-14T18:16:30.371Z,55.13
2017-08-14T18:18:55.142Z,55.04
2017-08-14T18:21:19.852Z,55.62
2017-08-14T18:23:44.801Z,55.33
2017-08-14T18:26:01.029Z,56.11
2017-08-14T18:28:25.721Z,55.43
2017-08-14T18:30:50.553Z,55.72
2017-08-14T18:33:15.279Z,56.21
2017-08-14T18:35:40.138Z,56.67
2017-08-14T18:38:04.926Z,57.15
2017-08-14T18:40:29.751Z,57.64
2017-08-14T18:42:54.458Z,57.35
2017-08-14T18:45:19.157Z,57.84
2017-08-14T18:47:43.946Z,58.61
2017-08-14T18:50:08.746Z,58.61
2017-08-14T18:52:33.421Z,58.81
2017-08-14T18:54:58.251Z,59.27
2017-08-14T18:57:23.003Z,59.66
2017-08-14T19:02:23.653Z,60.7
2017-08-14T19:04:49.636Z,60.99
2017-08-14T19:07:15.847Z,60.99
2017-08-14T19:09:41.702Z,61.38
2017-08-14T19:12:05.213Z,62.06
2017-08-14T19:14:29.972Z,62.35
2017-08-14T19:16:54.849Z,62.81
2017-08-14T19:19:19.680Z,63.78
